sensor_id;sensor_type;location;lat;lon;timestamp;P1;durP1;ratioP1;P2;durP2;ratioP2
22357;SDS011;11346;50.150;8.150;2023-05-07T00:00:55;2.13;;;2.03;;
22357;SDS011;11346;50.150;8.150;2023-05-07T00:03:24;1.83;;;1.50;;
22357;SDS011;11346;50.150;8.150;2023-05-07T00:05:52;3.03;;;1.50;;
22357;SDS011;11346;50.150;8.150;2023-05-07T00:08:19;1.67;;;1.43;;
22357;SDS011;11346;50.150;8.150;2023-05-07T00:10:46;2.40;;;1.50;;
22357;SDS011;11346;50.150;8.150;2023-05-07T00:13:15;1.93;;;1.60;;
22357;SDS011;11346;50.150;8.150;2023-05-07T00:15:42;3.83;;;1.50;;
22357;SDS011;11346;50.150;8.150;2023-05-07T00:18:09;2.23;;;1.60;;
22357;SDS011;11346;50.150;8.150;2023-05-07T00:20:36;1.77;;;1.60;;
22357;SDS011;11346;50.150;8.150;2023-05-07T00:23:03;1.80;;;1.53;;
22357;SDS011;11346;50.150;8.150;2023-05-07T00:25:30;3.87;;;1.67;;
22357;SDS011;11346;50.150;8.150;2023-05-07T00:27:57;1.70;;;1.60;;
22357;SDS011;11346;50.150;8.150;2023-05-07T00:30:29;1.50;;;1.40;;
22357;SDS011;11346;50.150;8.150;2023-05-07T00:32:56;1.97;;;1.70;;
22357;SDS011;11346;50.150;8.150;2023-05-07T00:35:24;3.57;;;1.67;;
22357;SDS011;11346;50.150;8.150;2023-05-07T00:37:51;5.53;;;1.87;;
22357;SDS011;11346;50.150;8.150;2023-05-07T00:40:18;2.73;;;1.60;;
22357;SDS011;11346;50.150;8.150;2023-05-07T00:42:45;2.10;;;1.90;;
22357;SDS011;11346;50.150;8.150;2023-05-07T00:45:13;4.70;;;1.70;;
22357;SDS011;11346;50.150;8.150;2023-05-07T00:47:42;2.30;;;1.60;;
22357;SDS011;11346;50.150;8.150;2023-05-07T00:50:09;5.47;;;1.70;;
22357;SDS011;11346;50.150;8.150;2023-05-07T00:52:37;5.00;;;1.90;;
22357;SDS011;11346;50.150;8.150;2023-05-07T00:55:05;1.70;;;1.50;;
22357;SDS011;11346;50.150;8.150;2023-05-07T00:57:32;1.87;;;1.50;;
22357;SDS011;11346;50.150;8.150;2023-05-07T01:00:03;1.70;;;1.60;;
22357;SDS011;11346;50.150;8.150;2023-05-07T01:02:30;1.87;;;1.43;;
22357;SDS011;11346;50.150;8.150;2023-05-07T01:04:58;1.67;;;1.57;;
22357;SDS011;11346;50.150;8.150;2023-05-07T01:07:27;2.33;;;1.50;;
22357;SDS011;11346;50.150;8.150;2023-05-07T01:09:55;4.33;;;1.70;;
22357;SDS011;11346;50.150;8.150;2023-05-07T01:12:22;2.33;;;1.70;;
22357;SDS011;11346;50.150;8.150;2023-05-07T01:14:50;3.13;;;1.77;;
22357;SDS011;11346;50.150;8.150;2023-05-07T01:17:17;1.77;;;1.50;;
22357;SDS011;11346;50.150;8.150;2023-05-07T01:19:44;2.50;;;1.87;;
22357;SDS011;11346;50.150;8.150;2023-05-07T01:22:14;2.13;;;1.90;;
22357;SDS011;11346;50.150;8.150;2023-05-07T01:24:43;1.63;;;1.50;;
22357;SDS011;11346;50.150;8.150;2023-05-07T01:27:10;5.90;;;1.60;;
22357;SDS011;11346;50.150;8.150;2023-05-07T01:29:37;1.77;;;1.67;;
22357;SDS011;11346;50.150;8.150;2023-05-07T01:32:06;2.70;;;1.87;;
22357;SDS011;11346;50.150;8.150;2023-05-07T01:34:39;3.23;;;1.93;;
22357;SDS011;11346;50.150;8.150;2023-05-07T01:37:10;1.80;;;1.70;;
22357;SDS011;11346;50.150;8.150;2023-05-07T01:39:37;2.00;;;1.70;;
22357;SDS011;11346;50.150;8.150;2023-05-07T01:42:07;4.50;;;1.80;;
22357;SDS011;11346;50.150;8.150;2023-05-07T01:44:34;2.13;;;1.60;;
22357;SDS011;11346;50.150;8.150;2023-05-07T01:47:01;2.00;;;1.80;;
22357;SDS011;11346;50.150;8.150;2023-05-07T01:49:28;2.33;;;1.70;;
22357;SDS011;11346;50.150;8.150;2023-05-07T01:51:56;2.83;;;1.80;;
22357;SDS011;11346;50.150;8.150;2023-05-07T01:54:25;2.40;;;1.80;;
22357;SDS011;11346;50.150;8.150;2023-05-07T01:56:53;1.90;;;1.80;;
22357;SDS011;11346;50.150;8.150;2023-05-07T01:59:22;3.20;;;1.70;;
22357;SDS011;11346;50.150;8.150;2023-05-07T02:01:49;2.97;;;2.10;;
22357;SDS011;11346;50.150;8.150;2023-05-07T02:04:16;1.70;;;1.60;;
22357;SDS011;11346;50.150;8.150;2023-05-07T02:06:43;4.80;;;1.80;;
22357;SDS011;11346;50.150;8.150;2023-05-07T02:09:10;2.73;;;1.80;;
22357;SDS011;11346;50.150;8.150;2023-05-07T02:11:37;3.60;;;1.80;;
22357;SDS011;11346;50.150;8.150;2023-05-07T02:14:04;2.30;;;1.87;;
22357;SDS011;11346;50.150;8.150;2023-05-07T02:16:33;2.83;;;1.87;;
22357;SDS011;11346;50.150;8.150;2023-05-07T02:19:00;1.80;;;1.70;;
22357;SDS011;11346;50.150;8.150;2023-05-07T02:21:27;3.03;;;1.80;;
22357;SDS011;11346;50.150;8.150;2023-05-07T02:23:54;4.20;;;1.80;;
22357;SDS011;11346;50.150;8.150;2023-05-07T02:26:21;2.77;;;1.60;;
22357;SDS011;11346;50.150;8.150;2023-05-07T02:28:48;3.57;;;1.77;;
22357;SDS011;11346;50.150;8.150;2023-05-07T02:31:15;1.80;;;1.70;;
22357;SDS011;11346;50.150;8.150;2023-05-07T02:33:44;2.10;;;1.90;;
22357;SDS011;11346;50.150;8.150;2023-05-07T02:36:11;6.33;;;1.77;;
22357;SDS011;11346;50.150;8.150;2023-05-07T02:38:38;1.70;;;1.60;;
22357;SDS011;11346;50.150;8.150;2023-05-07T02:41:05;4.73;;;1.43;;
22357;SDS011;11346;50.150;8.150;2023-05-07T02:43:32;2.50;;;1.97;;
22357;SDS011;11346;50.150;8.150;2023-05-07T02:46:00;4.97;;;2.33;;
22357;SDS011;11346;50.150;8.150;2023-05-07T02:48:27;2.50;;;1.80;;
22357;SDS011;11346;50.150;8.150;2023-05-07T02:50:56;2.50;;;2.30;;
22357;SDS011;11346;50.150;8.150;2023-05-07T02:53:23;2.23;;;2.03;;
22357;SDS011;11346;50.150;8.150;2023-05-07T02:55:51;2.47;;;2.23;;
22357;SDS011;11346;50.150;8.150;2023-05-07T02:58:18;6.07;;;2.00;;
22357;SDS011;11346;50.150;8.150;2023-05-07T03:00:45;2.07;;;1.90;;
22357;SDS011;11346;50.150;8.150;2023-05-07T03:03:12;1.97;;;1.77;;
22357;SDS011;11346;50.150;8.150;2023-05-07T03:05:40;2.50;;;2.17;;
22357;SDS011;11346;50.150;8.150;2023-05-07T03:08:08;1.70;;;1.60;;
22357;SDS011;11346;50.150;8.150;2023-05-07T03:10:35;2.10;;;1.90;;
22357;SDS011;11346;50.150;8.150;2023-05-07T03:13:02;3.40;;;1.90;;
22357;SDS011;11346;50.150;8.150;2023-05-07T03:15:30;4.43;;;2.07;;
22357;SDS011;11346;50.150;8.150;2023-05-07T03:17:57;3.93;;;2.00;;
22357;SDS011;11346;50.150;8.150;2023-05-07T03:20:24;3.30;;;2.20;;
22357;SDS011;11346;50.150;8.150;2023-05-07T03:22:51;2.63;;;2.10;;
22357;SDS011;11346;50.150;8.150;2023-05-07T03:25:19;2.20;;;1.93;;
22357;SDS011;11346;50.150;8.150;2023-05-07T03:27:46;1.97;;;1.87;;
22357;SDS011;11346;50.150;8.150;2023-05-07T03:30:13;1.90;;;1.80;;
22357;SDS011;11346;50.150;8.150;2023-05-07T03:32:40;3.57;;;2.07;;
22357;SDS011;11346;50.150;8.150;2023-05-07T03:35:07;2.67;;;2.00;;
22357;SDS011;11346;50.150;8.150;2023-05-07T03:37:34;2.40;;;2.10;;
22357;SDS011;11346;50.150;8.150;2023-05-07T03:40:02;3.37;;;1.93;;
22357;SDS011;11346;50.150;8.150;2023-05-07T03:42:30;2.17;;;1.90;;
22357;SDS011;11346;50.150;8.150;2023-05-07T03:44:57;2.37;;;2.13;;
22357;SDS011;11346;50.150;8.150;2023-05-07T03:47:24;2.17;;;1.93;;
22357;SDS011;11346;50.150;8.150;2023-05-07T03:49:51;2.97;;;2.00;;
22357;SDS011;11346;50.150;8.150;2023-05-07T03:52:19;2.93;;;2.20;;
22357;SDS011;11346;50.150;8.150;2023-05-07T03:54:50;3.37;;;2.43;;
22357;SDS011;11346;50.150;8.150;2023-05-07T03:57:17;2.20;;;1.93;;
22357;SDS011;11346;50.150;8.150;2023-05-07T03:59:46;3.67;;;2.20;;
22357;SDS011;11346;50.150;8.150;2023-05-07T04:02:13;3.27;;;2.60;;
22357;SDS011;11346;50.150;8.150;2023-05-07T04:04:40;3.87;;;2.40;;
22357;SDS011;11346;50.150;8.150;2023-05-07T04:07:07;3.90;;;2.10;;
22357;SDS011;11346;50.150;8.150;2023-05-07T04:09:34;2.37;;;2.17;;
22357;SDS011;11346;50.150;8.150;2023-05-07T04:12:02;4.47;;;2.00;;
22357;SDS011;11346;50.150;8.150;2023-05-07T04:14:29;3.03;;;2.13;;
22357;SDS011;11346;50.150;8.150;2023-05-07T04:16:58;2.10;;;1.87;;
22357;SDS011;11346;50.150;8.150;2023-05-07T04:19:25;5.23;;;2.00;;
22357;SDS011;11346;50.150;8.150;2023-05-07T04:21:52;2.07;;;1.90;;
22357;SDS011;11346;50.150;8.150;2023-05-07T04:24:19;3.73;;;2.17;;
22357;SDS011;11346;50.150;8.150;2023-05-07T04:26:46;2.40;;;2.03;;
22357;SDS011;11346;50.150;8.150;2023-05-07T04:29:13;6.37;;;2.07;;
22357;SDS011;11346;50.150;8.150;2023-05-07T04:31:40;3.20;;;2.00;;
22357;SDS011;11346;50.150;8.150;2023-05-07T04:34:10;2.10;;;1.90;;
22357;SDS011;11346;50.150;8.150;2023-05-07T04:36:38;3.77;;;2.30;;
22357;SDS011;11346;50.150;8.150;2023-05-07T04:39:05;2.50;;;2.20;;
22357;SDS011;11346;50.150;8.150;2023-05-07T04:41:32;2.40;;;2.20;;
22357;SDS011;11346;50.150;8.150;2023-05-07T04:44:01;2.17;;;1.90;;
22357;SDS011;11346;50.150;8.150;2023-05-07T04:46:29;4.63;;;2.30;;
22357;SDS011;11346;50.150;8.150;2023-05-07T04:48:56;2.27;;;1.90;;
22357;SDS011;11346;50.150;8.150;2023-05-07T04:51:25;3.27;;;1.97;;
22357;SDS011;11346;50.150;8.150;2023-05-07T04:53:53;5.57;;;2.23;;
22357;SDS011;11346;50.150;8.150;2023-05-07T04:56:20;3.50;;;2.10;;
22357;SDS011;11346;50.150;8.150;2023-05-07T04:58:47;3.47;;;2.03;;
22357;SDS011;11346;50.150;8.150;2023-05-07T05:01:14;4.03;;;2.20;;
22357;SDS011;11346;50.150;8.150;2023-05-07T05:03:41;2.73;;;2.10;;
22357;SDS011;11346;50.150;8.150;2023-05-07T05:06:08;3.60;;;2.10;;
22357;SDS011;11346;50.150;8.150;2023-05-07T05:08:36;2.23;;;2.03;;
22357;SDS011;11346;50.150;8.150;2023-05-07T05:11:03;3.17;;;2.13;;
22357;SDS011;11346;50.150;8.150;2023-05-07T05:13:30;4.27;;;2.30;;
22357;SDS011;11346;50.150;8.150;2023-05-07T05:15:57;2.33;;;2.07;;
22357;SDS011;11346;50.150;8.150;2023-05-07T05:18:24;4.17;;;2.03;;
22357;SDS011;11346;50.150;8.150;2023-05-07T05:20:51;2.43;;;2.23;;
22357;SDS011;11346;50.150;8.150;2023-05-07T05:23:19;2.40;;;2.20;;
22357;SDS011;11346;50.150;8.150;2023-05-07T05:25:47;2.87;;;2.23;;
22357;SDS011;11346;50.150;8.150;2023-05-07T05:28:14;2.37;;;2.17;;
22357;SDS011;11346;50.150;8.150;2023-05-07T05:30:41;4.53;;;2.30;;
22357;SDS011;11346;50.150;8.150;2023-05-07T05:33:08;3.67;;;2.40;;
22357;SDS011;11346;50.150;8.150;2023-05-07T05:35:35;2.57;;;2.37;;
22357;SDS011;11346;50.150;8.150;2023-05-07T05:38:02;3.40;;;2.50;;
22357;SDS011;11346;50.150;8.150;2023-05-07T05:40:30;3.97;;;2.33;;
22357;SDS011;11346;50.150;8.150;2023-05-07T05:42:58;5.23;;;2.17;;
22357;SDS011;11346;50.150;8.150;2023-05-07T05:45:25;2.57;;;2.37;;
22357;SDS011;11346;50.150;8.150;2023-05-07T05:47:52;4.30;;;2.80;;
22357;SDS011;11346;50.150;8.150;2023-05-07T05:50:19;3.37;;;2.20;;
22357;SDS011;11346;50.150;8.150;2023-05-07T05:52:46;2.77;;;2.00;;
22357;SDS011;11346;50.150;8.150;2023-05-07T05:55:13;3.77;;;2.53;;
22357;SDS011;11346;50.150;8.150;2023-05-07T05:57:41;3.47;;;2.37;;
22357;SDS011;11346;50.150;8.150;2023-05-07T06:00:09;2.13;;;1.93;;
22357;SDS011;11346;50.150;8.150;2023-05-07T06:02:37;4.93;;;2.30;;
22357;SDS011;11346;50.150;8.150;2023-05-07T06:05:04;3.10;;;2.90;;
22357;SDS011;11346;50.150;8.150;2023-05-07T06:07:31;4.30;;;2.13;;
22357;SDS011;11346;50.150;8.150;2023-05-07T06:09:59;2.30;;;2.10;;
22357;SDS011;11346;50.150;8.150;2023-05-07T06:12:26;3.53;;;2.20;;
22357;SDS011;11346;50.150;8.150;2023-05-07T06:14:53;2.20;;;2.00;;
22357;SDS011;11346;50.150;8.150;2023-05-07T06:17:22;5.13;;;2.50;;
22357;SDS011;11346;50.150;8.150;2023-05-07T06:19:49;3.27;;;2.00;;
22357;SDS011;11346;50.150;8.150;2023-05-07T06:22:16;2.37;;;1.90;;
22357;SDS011;11346;50.150;8.150;2023-05-07T06:24:43;2.90;;;1.80;;
22357;SDS011;11346;50.150;8.150;2023-05-07T06:27:11;2.77;;;1.97;;
22357;SDS011;11346;50.150;8.150;2023-05-07T06:29:38;4.80;;;1.80;;
22357;SDS011;11346;50.150;8.150;2023-05-07T06:32:08;1.80;;;1.70;;
22357;SDS011;11346;50.150;8.150;2023-05-07T06:34:36;4.40;;;1.90;;
22357;SDS011;11346;50.150;8.150;2023-05-07T06:37:03;1.87;;;1.77;;
22357;SDS011;11346;50.150;8.150;2023-05-07T06:39:30;3.57;;;2.00;;
22357;SDS011;11346;50.150;8.150;2023-05-07T06:41:58;2.23;;;2.03;;
22357;SDS011;11346;50.150;8.150;2023-05-07T06:44:25;5.13;;;1.97;;
22357;SDS011;11346;50.150;8.150;2023-05-07T06:46:52;2.00;;;1.80;;
22357;SDS011;11346;50.150;8.150;2023-05-07T06:49:19;3.23;;;1.73;;
22357;SDS011;11346;50.150;8.150;2023-05-07T06:51:47;3.93;;;1.80;;
22357;SDS011;11346;50.150;8.150;2023-05-07T06:54:14;3.87;;;1.87;;
22357;SDS011;11346;50.150;8.150;2023-05-07T06:56:41;2.00;;;1.90;;
22357;SDS011;11346;50.150;8.150;2023-05-07T06:59:08;2.77;;;1.97;;
22357;SDS011;11346;50.150;8.150;2023-05-07T07:01:35;4.20;;;2.00;;
22357;SDS011;11346;50.150;8.150;2023-05-07T07:04:03;2.57;;;1.70;;
22357;SDS011;11346;50.150;8.150;2023-05-07T07:06:30;5.10;;;2.07;;
22357;SDS011;11346;50.150;8.150;2023-05-07T07:08:58;2.23;;;2.03;;
22357;SDS011;11346;50.150;8.150;2023-05-07T07:11:25;2.40;;;2.10;;
22357;SDS011;11346;50.150;8.150;2023-05-07T07:13:52;6.43;;;2.00;;
22357;SDS011;11346;50.150;8.150;2023-05-07T07:16:20;3.77;;;1.83;;
22357;SDS011;11346;50.150;8.150;2023-05-07T07:18:47;1.90;;;1.70;;
22357;SDS011;11346;50.150;8.150;2023-05-07T07:21:14;2.17;;;2.07;;
22357;SDS011;11346;50.150;8.150;2023-05-07T07:23:41;3.60;;;2.13;;
22357;SDS011;11346;50.150;8.150;2023-05-07T07:26:10;3.10;;;2.13;;
22357;SDS011;11346;50.150;8.150;2023-05-07T07:28:41;2.50;;;2.30;;
22357;SDS011;11346;50.150;8.150;2023-05-07T07:31:08;2.40;;;2.20;;
22357;SDS011;11346;50.150;8.150;2023-05-07T07:33:36;2.27;;;1.97;;
22357;SDS011;11346;50.150;8.150;2023-05-07T07:36:03;2.53;;;2.33;;
22357;SDS011;11346;50.150;8.150;2023-05-07T07:38:30;3.00;;;1.90;;
22357;SDS011;11346;50.150;8.150;2023-05-07T07:40:57;2.00;;;1.90;;
22357;SDS011;11346;50.150;8.150;2023-05-07T07:43:25;1.97;;;1.87;;
22357;SDS011;11346;50.150;8.150;2023-05-07T07:45:52;2.17;;;2.07;;
22357;SDS011;11346;50.150;8.150;2023-05-07T07:48:19;4.47;;;2.20;;
22357;SDS011;11346;50.150;8.150;2023-05-07T07:50:48;2.30;;;2.10;;
22357;SDS011;11346;50.150;8.150;2023-05-07T07:53:16;7.93;;;2.00;;
22357;SDS011;11346;50.150;8.150;2023-05-07T07:55:43;1.80;;;1.70;;
22357;SDS011;11346;50.150;8.150;2023-05-07T07:58:10;2.20;;;2.00;;
22357;SDS011;11346;50.150;8.150;2023-05-07T08:00:38;2.10;;;2.00;;
22357;SDS011;11346;50.150;8.150;2023-05-07T08:03:05;2.20;;;2.10;;
22357;SDS011;11346;50.150;8.150;2023-05-07T08:05:32;2.50;;;2.30;;
22357;SDS011;11346;50.150;8.150;2023-05-07T08:08:00;2.30;;;2.10;;
22357;SDS011;11346;50.150;8.150;2023-05-07T08:10:27;3.57;;;2.40;;
22357;SDS011;11346;50.150;8.150;2023-05-07T08:12:54;3.40;;;2.17;;
22357;SDS011;11346;50.150;8.150;2023-05-07T08:15:21;3.93;;;2.20;;
22357;SDS011;11346;50.150;8.150;2023-05-07T08:17:49;3.03;;;2.10;;
22357;SDS011;11346;50.150;8.150;2023-05-07T08:20:16;2.70;;;2.00;;
22357;SDS011;11346;50.150;8.150;2023-05-07T08:22:43;2.93;;;1.93;;
22357;SDS011;11346;50.150;8.150;2023-05-07T08:25:11;3.87;;;2.30;;
22357;SDS011;11346;50.150;8.150;2023-05-07T08:27:38;4.67;;;2.10;;
22357;SDS011;11346;50.150;8.150;2023-05-07T08:30:05;5.00;;;2.40;;
22357;SDS011;11346;50.150;8.150;2023-05-07T08:32:32;2.50;;;2.30;;
22357;SDS011;11346;50.150;8.150;2023-05-07T08:35:01;4.00;;;2.07;;
22357;SDS011;11346;50.150;8.150;2023-05-07T08:37:28;3.23;;;2.40;;
22357;SDS011;11346;50.150;8.150;2023-05-07T08:39:55;2.53;;;2.33;;
22357;SDS011;11346;50.150;8.150;2023-05-07T08:42:23;3.23;;;2.10;;
22357;SDS011;11346;50.150;8.150;2023-05-07T08:44:51;2.50;;;2.30;;
22357;SDS011;11346;50.150;8.150;2023-05-07T08:47:19;2.30;;;2.20;;
22357;SDS011;11346;50.150;8.150;2023-05-07T08:49:47;2.67;;;2.17;;
22357;SDS011;11346;50.150;8.150;2023-05-07T08:52:16;2.63;;;2.10;;
22357;SDS011;11346;50.150;8.150;2023-05-07T08:54:44;2.53;;;2.07;;
22357;SDS011;11346;50.150;8.150;2023-05-07T08:57:12;3.70;;;2.50;;
22357;SDS011;11346;50.150;8.150;2023-05-07T08:59:39;2.40;;;2.20;;
22357;SDS011;11346;50.150;8.150;2023-05-07T09:02:07;2.20;;;2.00;;
22357;SDS011;11346;50.150;8.150;2023-05-07T09:04:35;2.50;;;2.30;;
22357;SDS011;11346;50.150;8.150;2023-05-07T09:07:02;2.80;;;2.10;;
22357;SDS011;11346;50.150;8.150;2023-05-07T09:09:33;2.30;;;2.10;;
22357;SDS011;11346;50.150;8.150;2023-05-07T09:12:00;2.80;;;2.20;;
22357;SDS011;11346;50.150;8.150;2023-05-07T09:14:28;5.13;;;2.43;;
22357;SDS011;11346;50.150;8.150;2023-05-07T09:16:56;2.00;;;1.90;;
22357;SDS011;11346;50.150;8.150;2023-05-07T09:19:23;2.30;;;2.10;;
22357;SDS011;11346;50.150;8.150;2023-05-07T09:21:57;2.30;;;2.00;;
22357;SDS011;11346;50.150;8.150;2023-05-07T09:24:24;2.27;;;1.90;;
22357;SDS011;11346;50.150;8.150;2023-05-07T09:26:55;2.07;;;1.97;;
22357;SDS011;11346;50.150;8.150;2023-05-07T09:29:24;2.73;;;2.20;;
22357;SDS011;11346;50.150;8.150;2023-05-07T09:31:53;2.67;;;1.97;;
22357;SDS011;11346;50.150;8.150;2023-05-07T09:34:20;2.37;;;2.17;;
22357;SDS011;11346;50.150;8.150;2023-05-07T09:36:47;2.17;;;1.97;;
22357;SDS011;11346;50.150;8.150;2023-05-07T09:39:15;2.93;;;2.00;;
22357;SDS011;11346;50.150;8.150;2023-05-07T09:41:45;2.20;;;2.00;;
22357;SDS011;11346;50.150;8.150;2023-05-07T09:44:14;2.63;;;1.87;;
22357;SDS011;11346;50.150;8.150;2023-05-07T09:46:42;2.00;;;1.90;;
22357;SDS011;11346;50.150;8.150;2023-05-07T09:49:11;3.23;;;2.93;;
22357;SDS011;11346;50.150;8.150;2023-05-07T09:51:41;3.63;;;2.03;;
22357;SDS011;11346;50.150;8.150;2023-05-07T09:54:10;3.37;;;2.47;;
22357;SDS011;11346;50.150;8.150;2023-05-07T09:56:37;2.30;;;2.10;;
22357;SDS011;11346;50.150;8.150;2023-05-07T09:59:06;2.43;;;2.23;;
22357;SDS011;11346;50.150;8.150;2023-05-07T10:01:35;3.40;;;2.40;;
22357;SDS011;11346;50.150;8.150;2023-05-07T10:04:03;3.83;;;2.20;;
22357;SDS011;11346;50.150;8.150;2023-05-07T10:06:30;2.27;;;2.07;;
22357;SDS011;11346;50.150;8.150;2023-05-07T10:08:57;4.57;;;2.33;;
22357;SDS011;11346;50.150;8.150;2023-05-07T10:11:24;4.93;;;2.10;;
22357;SDS011;11346;50.150;8.150;2023-05-07T10:13:51;3.43;;;2.40;;
22357;SDS011;11346;50.150;8.150;2023-05-07T10:16:18;3.13;;;2.57;;
22357;SDS011;11346;50.150;8.150;2023-05-07T10:18:47;3.93;;;2.33;;
22357;SDS011;11346;50.150;8.150;2023-05-07T10:21:15;2.80;;;2.60;;
22357;SDS011;11346;50.150;8.150;2023-05-07T10:23:44;2.60;;;2.40;;
22357;SDS011;11346;50.150;8.150;2023-05-07T10:26:11;2.80;;;2.47;;
22357;SDS011;11346;50.150;8.150;2023-05-07T10:28:41;3.83;;;1.93;;
22357;SDS011;11346;50.150;8.150;2023-05-07T10:31:15;3.70;;;2.27;;
22357;SDS011;11346;50.150;8.150;2023-05-07T10:33:46;3.43;;;2.13;;
22357;SDS011;11346;50.150;8.150;2023-05-07T10:36:16;2.30;;;2.20;;
22357;SDS011;11346;50.150;8.150;2023-05-07T10:38:43;2.73;;;2.20;;
22357;SDS011;11346;50.150;8.150;2023-05-07T10:41:11;2.63;;;2.43;;
22357;SDS011;11346;50.150;8.150;2023-05-07T10:43:39;3.33;;;1.80;;
22357;SDS011;11346;50.150;8.150;2023-05-07T10:46:10;3.57;;;2.10;;
22357;SDS011;11346;50.150;8.150;2023-05-07T10:51:21;2.57;;;2.37;;
22357;SDS011;11346;50.150;8.150;2023-05-07T10:53:48;2.03;;;1.90;;
22357;SDS011;11346;50.150;8.150;2023-05-07T10:56:35;5.47;;;2.30;;
22357;SDS011;11346;50.150;8.150;2023-05-07T11:02:05;7.03;;;2.10;;
22357;SDS011;11346;50.150;8.150;2023-05-07T11:04:34;1.93;;;1.80;;
22357;SDS011;11346;50.150;8.150;2023-05-07T11:10:00;2.60;;;2.40;;
22357;SDS011;11346;50.150;8.150;2023-05-07T11:15:15;3.07;;;2.10;;
22357;SDS011;11346;50.150;8.150;2023-05-07T11:17:59;2.33;;;2.13;;
22357;SDS011;11346;50.150;8.150;2023-05-07T11:23:17;2.47;;;2.27;;
22357;SDS011;11346;50.150;8.150;2023-05-07T11:26:05;2.53;;;2.33;;
22357;SDS011;11346;50.150;8.150;2023-05-07T11:28:36;3.43;;;2.63;;
22357;SDS011;11346;50.150;8.150;2023-05-07T11:31:03;5.30;;;2.13;;
22357;SDS011;11346;50.150;8.150;2023-05-07T11:33:30;2.63;;;2.13;;
22357;SDS011;11346;50.150;8.150;2023-05-07T11:35:57;2.60;;;2.33;;
22357;SDS011;11346;50.150;8.150;2023-05-07T11:38:27;2.67;;;2.30;;
22357;SDS011;11346;50.150;8.150;2023-05-07T11:40:55;2.77;;;2.27;;
22357;SDS011;11346;50.150;8.150;2023-05-07T11:43:25;3.00;;;2.70;;
22357;SDS011;11346;50.150;8.150;2023-05-07T11:45:52;3.07;;;2.77;;
22357;SDS011;11346;50.150;8.150;2023-05-07T11:48:20;3.13;;;2.50;;
22357;SDS011;11346;50.150;8.150;2023-05-07T11:50:51;3.90;;;2.97;;
22357;SDS011;11346;50.150;8.150;2023-05-07T11:53:18;2.63;;;2.10;;
22357;SDS011;11346;50.150;8.150;2023-05-07T11:55:45;2.10;;;2.00;;
22357;SDS011;11346;50.150;8.150;2023-05-07T11:58:18;2.30;;;2.00;;
22357;SDS011;11346;50.150;8.150;2023-05-07T12:00:51;1.90;;;1.80;;
22357;SDS011;11346;50.150;8.150;2023-05-07T12:03:18;2.97;;;2.50;;
22357;SDS011;11346;50.150;8.150;2023-05-07T12:05:46;4.43;;;2.37;;
22357;SDS011;11346;50.150;8.150;2023-05-07T12:08:13;2.40;;;2.17;;
22357;SDS011;11346;50.150;8.150;2023-05-07T12:10:41;1.90;;;1.80;;
22357;SDS011;11346;50.150;8.150;2023-05-07T12:13:13;2.23;;;2.00;;
22357;SDS011;11346;50.150;8.150;2023-05-07T12:15:40;2.00;;;1.90;;
22357;SDS011;11346;50.150;8.150;2023-05-07T12:18:09;3.27;;;2.00;;
22357;SDS011;11346;50.150;8.150;2023-05-07T12:20:37;2.30;;;2.10;;
22357;SDS011;11346;50.150;8.150;2023-05-07T12:23:04;2.27;;;2.07;;
22357;SDS011;11346;50.150;8.150;2023-05-07T12:25:31;3.03;;;2.53;;
22357;SDS011;11346;50.150;8.150;2023-05-07T12:28:00;2.37;;;2.10;;
22357;SDS011;11346;50.150;8.150;2023-05-07T12:30:27;2.80;;;2.60;;
22357;SDS011;11346;50.150;8.150;2023-05-07T12:32:54;2.30;;;2.10;;
22357;SDS011;11346;50.150;8.150;2023-05-07T12:35:29;3.23;;;2.53;;
22357;SDS011;11346;50.150;8.150;2023-05-07T12:37:56;2.90;;;2.60;;
22357;SDS011;11346;50.150;8.150;2023-05-07T12:40:25;2.40;;;2.20;;
22357;SDS011;11346;50.150;8.150;2023-05-07T12:43:00;2.27;;;2.13;;
22357;SDS011;11346;50.150;8.150;2023-05-07T12:45:27;3.50;;;2.70;;
22357;SDS011;11346;50.150;8.150;2023-05-07T12:47:54;2.80;;;2.37;;
22357;SDS011;11346;50.150;8.150;2023-05-07T12:50:21;3.27;;;2.10;;
22357;SDS011;11346;50.150;8.150;2023-05-07T12:52:49;3.20;;;2.37;;
22357;SDS011;11346;50.150;8.150;2023-05-07T12:55:17;2.77;;;2.57;;
22357;SDS011;11346;50.150;8.150;2023-05-07T12:57:45;3.27;;;2.40;;
22357;SDS011;11346;50.150;8.150;2023-05-07T13:00:14;3.00;;;2.80;;
22357;SDS011;11346;50.150;8.150;2023-05-07T13:02:42;3.40;;;3.10;;
22357;SDS011;11346;50.150;8.150;2023-05-07T13:05:10;2.80;;;2.60;;
22357;SDS011;11346;50.150;8.150;2023-05-07T13:07:37;3.50;;;2.80;;
22357;SDS011;11346;50.150;8.150;2023-05-07T13:10:07;3.73;;;3.00;;
22357;SDS011;11346;50.150;8.150;2023-05-07T13:12:35;3.13;;;2.90;;
22357;SDS011;11346;50.150;8.150;2023-05-07T13:15:02;3.37;;;2.77;;
22357;SDS011;11346;50.150;8.150;2023-05-07T13:17:29;4.00;;;2.40;;
22357;SDS011;11346;50.150;8.150;2023-05-07T13:19:56;3.40;;;3.10;;
22357;SDS011;11346;50.150;8.150;2023-05-07T13:22:23;4.67;;;2.97;;
22357;SDS011;11346;50.150;8.150;2023-05-07T13:24:50;3.27;;;2.87;;
22357;SDS011;11346;50.150;8.150;2023-05-07T13:27:20;2.87;;;2.67;;
22357;SDS011;11346;50.150;8.150;2023-05-07T13:29:47;3.13;;;2.77;;
22357;SDS011;11346;50.150;8.150;2023-05-07T13:32:14;5.03;;;2.97;;
22357;SDS011;11346;50.150;8.150;2023-05-07T13:34:41;4.90;;;2.90;;
22357;SDS011;11346;50.150;8.150;2023-05-07T13:37:08;4.40;;;2.83;;
22357;SDS011;11346;50.150;8.150;2023-05-07T13:39:35;4.57;;;2.77;;
22357;SDS011;11346;50.150;8.150;2023-05-07T13:42:02;3.90;;;2.90;;
22357;SDS011;11346;50.150;8.150;2023-05-07T13:44:31;3.80;;;3.13;;
22357;SDS011;11346;50.150;8.150;2023-05-07T13:46:58;3.50;;;2.90;;
22357;SDS011;11346;50.150;8.150;2023-05-07T13:49:25;6.63;;;3.40;;
22357;SDS011;11346;50.150;8.150;2023-05-07T13:51:52;3.47;;;2.97;;
22357;SDS011;11346;50.150;8.150;2023-05-07T13:54:19;2.93;;;2.63;;
22357;SDS011;11346;50.150;8.150;2023-05-07T13:56:46;3.80;;;3.40;;
22357;SDS011;11346;50.150;8.150;2023-05-07T13:59:13;7.03;;;3.40;;
22357;SDS011;11346;50.150;8.150;2023-05-07T14:01:43;3.37;;;3.07;;
22357;SDS011;11346;50.150;8.150;2023-05-07T14:04:10;5.03;;;3.10;;
22357;SDS011;11346;50.150;8.150;2023-05-07T14:06:37;3.97;;;3.50;;
22357;SDS011;11346;50.150;8.150;2023-05-07T14:09:04;7.20;;;3.37;;
22357;SDS011;11346;50.150;8.150;2023-05-07T14:11:31;4.30;;;3.50;;
22357;SDS011;11346;50.150;8.150;2023-05-07T14:13:59;3.40;;;3.10;;
22357;SDS011;11346;50.150;8.150;2023-05-07T14:16:26;3.60;;;3.30;;
22357;SDS011;11346;50.150;8.150;2023-05-07T14:18:54;5.87;;;4.43;;
22357;SDS011;11346;50.150;8.150;2023-05-07T14:21:21;5.40;;;4.40;;
22357;SDS011;11346;50.150;8.150;2023-05-07T14:23:48;8.27;;;4.60;;
22357;SDS011;11346;50.150;8.150;2023-05-07T14:26:16;6.73;;;3.87;;
22357;SDS011;11346;50.150;8.150;2023-05-07T14:28:43;11.77;;;6.00;;
22357;SDS011;11346;50.150;8.150;2023-05-07T14:31:11;7.53;;;3.93;;
22357;SDS011;11346;50.150;8.150;2023-05-07T14:33:38;3.47;;;2.73;;
22357;SDS011;11346;50.150;8.150;2023-05-07T14:36:06;3.30;;;2.90;;
22357;SDS011;11346;50.150;8.150;2023-05-07T14:38:33;3.30;;;2.90;;
22357;SDS011;11346;50.150;8.150;2023-05-07T14:41:00;4.80;;;3.03;;
22357;SDS011;11346;50.150;8.150;2023-05-07T14:43:27;4.00;;;2.97;;
22357;SDS011;11346;50.150;8.150;2023-05-07T14:45:54;3.33;;;2.80;;
22357;SDS011;11346;50.150;8.150;2023-05-07T14:48:21;3.37;;;2.97;;
22357;SDS011;11346;50.150;8.150;2023-05-07T14:50:48;3.40;;;2.77;;
22357;SDS011;11346;50.150;8.150;2023-05-07T14:53:17;3.10;;;2.73;;
22357;SDS011;11346;50.150;8.150;2023-05-07T14:55:44;3.43;;;3.13;;
22357;SDS011;11346;50.150;8.150;2023-05-07T14:58:11;3.90;;;3.60;;
22357;SDS011;11346;50.150;8.150;2023-05-07T15:00:38;7.43;;;5.93;;
22357;SDS011;11346;50.150;8.150;2023-05-07T15:03:06;5.03;;;3.20;;
22357;SDS011;11346;50.150;8.150;2023-05-07T15:05:33;4.97;;;3.10;;